sensor_id;sensor_type;location;lat;lon;timestamp;pressure;altitude;pressure_sealevel;temperature;humidity
21574;BME280;10948;48.706;9.258;2023-09-07T00:01:43;98057.16;;;15.79;100.00
21574;BME280;10948;48.706;9.258;2023-09-07T00:04:08;98063.16;;;15.92;100.00
21574;BME280;10948;48.706;9.258;2023-09-07T00:06:33;98051.47;;;15.96;100.00
21574;BME280;10948;48.706;9.258;2023-09-07T00:08:59;98054.19;;;15.83;100.00
21574;BME280;10948;48.706;9.258;2023-09-07T00:11:25;98056.66;;;15.74;100.00
21574;BME280;10948;48.706;9.258;2023-09-07T00:13:50;98059.56;;;15.82;100.00
21574;BME280;10948;48.706;9.258;2023-09-07T00:16:16;98059.28;;;15.74;100.00
21574;BME280;10948;48.706;9.258;2023-09-07T00:18:41;98056.00;;;15.83;100.00
21574;BME280;10948;48.706;9.258;2023-09-07T00:21:06;98056.91;;;15.71;100.00
21574;BME280;10948;48.706;9.258;2023-09-07T00:23:31;98055.94;;;15.61;100.00
21574;BME280;10948;48.706;9.258;2023-09-07T00:25:57;98056.88;;;15.49;100.00
21574;BME280;10948;48.706;9.258;2023-09-07T00:28:22;98060.56;;;15.57;100.00
21574;BME280;10948;48.706;9.258;2023-09-07T00:30:47;98065.22;;;15.54;100.00
21574;BME280;10948;48.706;9.258;2023-09-07T00:33:12;98058.28;;;15.53;100.00
21574;BME280;10948;48.706;9.258;2023-09-07T00:35:37;98059.75;;;15.57;100.00
21574;BME280;10948;48.706;9.258;2023-09-07T00:38:03;98061.31;;;15.59;100.00
21574;BME280;10948;48.706;9.258;2023-09-07T00:40:28;98054.19;;;15.38;100.00
21574;BME280;10948;48.706;9.258;2023-09-07T00:42:54;98060.22;;;15.51;100.00
21574;BME280;10948;48.706;9.258;2023-09-07T00:45:19;98064.34;;;15.19;100.00
21574;BME280;10948;48.706;9.258;2023-09-07T00:47:44;98065.34;;;15.29;100.00
21574;BME280;10948;48.706;9.258;2023-09-07T00:50:09;98064.25;;;15.44;100.00
21574;BME280;10948;48.706;9.258;2023-09-07T00:52:38;98057.16;;;15.10;100.00
21574;BME280;10948;48.706;9.258;2023-09-07T00:55:05;98063.66;;;15.28;100.00
21574;BME280;10948;48.706;9.258;2023-09-07T00:57:30;98064.41;;;15.06;100.00
21574;BME280;10948;48.706;9.258;2023-09-07T00:59:56;98064.06;;;15.11;100.00
21574;BME280;10948;48.706;9.258;2023-09-07T01:02:21;98061.47;;;15.11;100.00
21574;BME280;10948;48.706;9.258;2023-09-07T01:04:46;98066.06;;;15.31;100.00
21574;BME280;10948;48.706;9.258;2023-09-07T01:09:36;98051.88;;;14.99;100.00
21574;BME280;10948;48.706;9.258;2023-09-07T01:12:05;98058.03;;;15.21;100.00
21574;BME280;10948;48.706;9.258;2023-09-07T01:14:35;98052.47;;;15.02;100.00
21574;BME280;10948;48.706;9.258;2023-09-07T01:17:00;98050.97;;;15.11;100.00
21574;BME280;10948;48.706;9.258;2023-09-07T01:19:26;98053.09;;;15.06;100.00
21574;BME280;10948;48.706;9.258;2023-09-07T01:21:51;98051.53;;;14.80;100.00
21574;BME280;10948;48.706;9.258;2023-09-07T01:24:16;98056.16;;;15.00;100.00
21574;BME280;10948;48.706;9.258;2023-09-07T01:26:42;98053.25;;;15.15;100.00
21574;BME280;10948;48.706;9.258;2023-09-07T01:29:07;98060.13;;;14.82;100.00
21574;BME280;10948;48.706;9.258;2023-09-07T01:31:36;98055.59;;;14.60;100.00
21574;BME280;10948;48.706;9.258;2023-09-07T01:34:03;98058.16;;;14.73;100.00
21574;BME280;10948;48.706;9.258;2023-09-07T01:36:28;98050.88;;;14.89;100.00
21574;BME280;10948;48.706;9.258;2023-09-07T01:38:54;98048.97;;;14.91;100.00
21574;BME280;10948;48.706;9.258;2023-09-07T01:41:19;98049.84;;;14.79;100.00
21574;BME280;10948;48.706;9.258;2023-09-07T01:43:44;98044.94;;;14.74;100.00
21574;BME280;10948;48.706;9.258;2023-09-07T01:46:09;98049.94;;;15.01;100.00
21574;BME280;10948;48.706;9.258;2023-09-07T01:48:34;98055.50;;;14.85;100.00
21574;BME280;10948;48.706;9.258;2023-09-07T01:51:00;98061.00;;;14.70;100.00
21574;BME280;10948;48.706;9.258;2023-09-07T01:53:25;98057.25;;;14.61;100.00
21574;BME280;10948;48.706;9.258;2023-09-07T01:55:53;98060.78;;;14.73;100.00
21574;BME280;10948;48.706;9.258;2023-09-07T01:58:18;98064.78;;;14.66;100.00
21574;BME280;10948;48.706;9.258;2023-09-07T02:00:43;98058.91;;;14.62;100.00
21574;BME280;10948;48.706;9.258;2023-09-07T02:03:09;98062.31;;;14.52;100.00
21574;BME280;10948;48.706;9.258;2023-09-07T02:05:35;98065.88;;;14.51;100.00
21574;BME280;10948;48.706;9.258;2023-09-07T02:08:00;98062.72;;;14.46;100.00
21574;BME280;10948;48.706;9.258;2023-09-07T02:10:26;98061.50;;;14.39;100.00
21574;BME280;10948;48.706;9.258;2023-09-07T02:12:51;98062.25;;;14.28;100.00
21574;BME280;10948;48.706;9.258;2023-09-07T02:15:16;98065.25;;;14.35;100.00
21574;BME280;10948;48.706;9.258;2023-09-07T02:17:42;98060.63;;;14.51;100.00
21574;BME280;10948;48.706;9.258;2023-09-07T02:20:10;98058.53;;;14.43;100.00
21574;BME280;10948;48.706;9.258;2023-09-07T02:22:35;98065.59;;;14.30;100.00
21574;BME280;10948;48.706;9.258;2023-09-07T02:25:01;98063.63;;;14.09;100.00
21574;BME280;10948;48.706;9.258;2023-09-07T02:27:27;98061.72;;;14.11;100.00
21574;BME280;10948;48.706;9.258;2023-09-07T02:29:53;98068.53;;;14.01;100.00
21574;BME280;10948;48.706;9.258;2023-09-07T02:32:18;98066.34;;;13.82;100.00
21574;BME280;10948;48.706;9.258;2023-09-07T02:34:43;98065.63;;;14.05;100.00
21574;BME280;10948;48.706;9.258;2023-09-07T02:37:09;98059.25;;;14.22;100.00
21574;BME280;10948;48.706;9.258;2023-09-07T02:39:34;98057.72;;;14.30;100.00
21574;BME280;10948;48.706;9.258;2023-09-07T02:41:59;98068.41;;;14.15;100.00
21574;BME280;10948;48.706;9.258;2023-09-07T02:44:24;98060.44;;;14.16;100.00
21574;BME280;10948;48.706;9.258;2023-09-07T02:46:50;98069.28;;;14.03;100.00
21574;BME280;10948;48.706;9.258;2023-09-07T02:49:15;98055.25;;;14.04;100.00
21574;BME280;10948;48.706;9.258;2023-09-07T02:51:40;98061.63;;;14.12;100.00
21574;BME280;10948;48.706;9.258;2023-09-07T02:54:06;98059.53;;;14.30;100.00
21574;BME280;10948;48.706;9.258;2023-09-07T02:56:31;98052.94;;;14.24;100.00
21574;BME280;10948;48.706;9.258;2023-09-07T02:58:56;98063.63;;;14.21;100.00
21574;BME280;10948;48.706;9.258;2023-09-07T03:01:22;98049.78;;;14.07;100.00
21574;BME280;10948;48.706;9.258;2023-09-07T03:03:47;98056.06;;;13.67;100.00
21574;BME280;10948;48.706;9.258;2023-09-07T03:06:13;98054.28;;;13.80;100.00
21574;BME280;10948;48.706;9.258;2023-09-07T03:08:39;98052.94;;;13.87;100.00
21574;BME280;10948;48.706;9.258;2023-09-07T03:11:04;98057.63;;;13.82;100.00
21574;BME280;10948;48.706;9.258;2023-09-07T03:13:30;98048.22;;;13.67;100.00
21574;BME280;10948;48.706;9.258;2023-09-07T03:15:56;98050.72;;;13.81;100.00
21574;BME280;10948;48.706;9.258;2023-09-07T03:18:21;98050.00;;;13.66;100.00
21574;BME280;10948;48.706;9.258;2023-09-07T03:20:46;98048.53;;;13.75;100.00
21574;BME280;10948;48.706;9.258;2023-09-07T03:23:12;98043.72;;;13.44;100.00
21574;BME280;10948;48.706;9.258;2023-09-07T03:25:37;98041.81;;;13.46;100.00
21574;BME280;10948;48.706;9.258;2023-09-07T03:28:02;98046.44;;;13.55;100.00
21574;BME280;10948;48.706;9.258;2023-09-07T03:30:28;98053.34;;;13.56;100.00
21574;BME280;10948;48.706;9.258;2023-09-07T03:32:53;98045.69;;;13.53;100.00
21574;BME280;10948;48.706;9.258;2023-09-07T03:35:19;98051.25;;;13.48;100.00
21574;BME280;10948;48.706;9.258;2023-09-07T03:37:44;98053.22;;;13.57;100.00
21574;BME280;10948;48.706;9.258;2023-09-07T03:40:09;98046.66;;;13.64;100.00
21574;BME280;10948;48.706;9.258;2023-09-07T03:42:35;98050.84;;;13.67;100.00
21574;BME280;10948;48.706;9.258;2023-09-07T03:45:00;98045.38;;;13.45;100.00
21574;BME280;10948;48.706;9.258;2023-09-07T03:47:25;98047.69;;;13.37;100.00
21574;BME280;10948;48.706;9.258;2023-09-07T03:49:54;98045.78;;;13.26;100.00
21574;BME280;10948;48.706;9.258;2023-09-07T03:52:19;98043.66;;;13.31;100.00
21574;BME280;10948;48.706;9.258;2023-09-07T03:54:47;98051.63;;;13.30;100.00
21574;BME280;10948;48.706;9.258;2023-09-07T03:57:12;98049.75;;;13.44;100.00
21574;BME280;10948;48.706;9.258;2023-09-07T03:59:37;98043.91;;;13.41;100.00
21574;BME280;10948;48.706;9.258;2023-09-07T04:02:03;98047.69;;;13.37;100.00
21574;BME280;10948;48.706;9.258;2023-09-07T04:04:28;98045.34;;;13.20;100.00
21574;BME280;10948;48.706;9.258;2023-09-07T04:06:53;98039.53;;;13.41;100.00
21574;BME280;10948;48.706;9.258;2023-09-07T04:09:18;98044.25;;;13.49;100.00
21574;BME280;10948;48.706;9.258;2023-09-07T04:11:43;98051.25;;;13.36;100.00
21574;BME280;10948;48.706;9.258;2023-09-07T04:14:09;98046.25;;;13.45;100.00
21574;BME280;10948;48.706;9.258;2023-09-07T04:16:34;98044.53;;;13.32;100.00
21574;BME280;10948;48.706;9.258;2023-09-07T04:18:59;98048.50;;;13.25;100.00
21574;BME280;10948;48.706;9.258;2023-09-07T04:21:24;98042.38;;;13.12;100.00
21574;BME280;10948;48.706;9.258;2023-09-07T04:23:50;98050.38;;;13.23;100.00
21574;BME280;10948;48.706;9.258;2023-09-07T04:26:15;98048.50;;;13.25;100.00
21574;BME280;10948;48.706;9.258;2023-09-07T04:28:40;98049.91;;;13.04;100.00
21574;BME280;10948;48.706;9.258;2023-09-07T04:31:05;98046.25;;;13.06;100.00
21574;BME280;10948;48.706;9.258;2023-09-07T04:33:31;98044.84;;;13.01;100.00
21574;BME280;10948;48.706;9.258;2023-09-07T04:35:56;98044.84;;;13.01;100.00
21574;BME280;10948;48.706;9.258;2023-09-07T04:38:21;98040.66;;;12.98;100.00
21574;BME280;10948;48.706;9.258;2023-09-07T04:40:46;98050.03;;;12.88;100.00
21574;BME280;10948;48.706;9.258;2023-09-07T04:43:12;98046.09;;;12.95;100.00
21574;BME280;10948;48.706;9.258;2023-09-07T04:45:45;98047.84;;;13.09;100.00
21574;BME280;10948;48.706;9.258;2023-09-07T04:48:10;98040.50;;;13.14;100.00
21574;BME280;10948;48.706;9.258;2023-09-07T04:50:36;98047.72;;;13.10;100.00
21574;BME280;10948;48.706;9.258;2023-09-07T04:53:02;98043.75;;;12.91;100.00
21574;BME280;10948;48.706;9.258;2023-09-07T04:55:27;98044.34;;;12.82;100.00
21574;BME280;10948;48.706;9.258;2023-09-07T04:57:52;98040.41;;;12.89;100.00
21574;BME280;10948;48.706;9.258;2023-09-07T05:00:17;98041.88;;;12.93;100.00
21574;BME280;10948;48.706;9.258;2023-09-07T05:02:43;98041.72;;;12.96;100.00
21574;BME280;10948;48.706;9.258;2023-09-07T05:05:08;98041.44;;;13.13;100.00
21574;BME280;10948;48.706;9.258;2023-09-07T05:07:33;98046.59;;;13.14;100.00
21574;BME280;10948;48.706;9.258;2023-09-07T05:09:59;98047.69;;;13.37;100.00
21574;BME280;10948;48.706;9.258;2023-09-07T05:12:24;98054.84;;;13.21;100.00
21574;BME280;10948;48.706;9.258;2023-09-07T05:14:50;98060.25;;;13.57;100.00
21574;BME280;10948;48.706;9.258;2023-09-07T05:17:15;98065.94;;;13.76;100.00
21574;BME280;10948;48.706;9.258;2023-09-07T05:19:40;98066.00;;;13.87;100.00
21574;BME280;10948;48.706;9.258;2023-09-07T05:22:05;98064.03;;;14.03;100.00
21574;BME280;10948;48.706;9.258;2023-09-07T05:24:30;98063.63;;;13.84;100.00
21574;BME280;10948;48.706;9.258;2023-09-07T05:26:56;98068.63;;;14.37;100.00
21574;BME280;10948;48.706;9.258;2023-09-07T05:29:21;98066.00;;;14.73;100.00
21574;BME280;10948;48.706;9.258;2023-09-07T05:31:47;98079.31;;;14.34;100.00
21574;BME280;10948;48.706;9.258;2023-09-07T05:34:13;98076.38;;;14.26;100.00
21574;BME280;10948;48.706;9.258;2023-09-07T05:36:38;98074.63;;;14.62;100.00
21574;BME280;10948;48.706;9.258;2023-09-07T05:39:03;98067.75;;;14.85;100.00
21574;BME280;10948;48.706;9.258;2023-09-07T05:41:29;98076.13;;;14.90;100.00
21574;BME280;10948;48.706;9.258;2023-09-07T05:43:54;98077.41;;;15.55;100.00
21574;BME280;10948;48.706;9.258;2023-09-07T05:46:19;98079.03;;;15.21;100.00
21574;BME280;10948;48.706;9.258;2023-09-07T05:48:45;98074.03;;;15.29;100.00
21574;BME280;10948;48.706;9.258;2023-09-07T05:51:10;98073.53;;;15.48;100.00
21574;BME280;10948;48.706;9.258;2023-09-07T05:53:36;98071.16;;;16.01;100.00
21574;BME280;10948;48.706;9.258;2023-09-07T05:56:01;98075.00;;;16.19;100.00
21574;BME280;10948;48.706;9.258;2023-09-07T05:58:26;98073.69;;;16.47;100.00
21574;BME280;10948;48.706;9.258;2023-09-07T06:00:52;98073.00;;;16.56;100.00
21574;BME280;10948;48.706;9.258;2023-09-07T06:03:17;98070.63;;;16.95;100.00
21574;BME280;10948;48.706;9.258;2023-09-07T06:05:43;98073.34;;;17.15;100.00
21574;BME280;10948;48.706;9.258;2023-09-07T06:08:09;98071.81;;;18.06;100.00
21574;BME280;10948;48.706;9.258;2023-09-07T06:10:35;98068.78;;;18.70;96.99
21574;BME280;10948;48.706;9.258;2023-09-07T06:13:00;98069.56;;;18.52;96.70
21574;BME280;10948;48.706;9.258;2023-09-07T06:15:25;98070.38;;;18.92;94.61
21574;BME280;10948;48.706;9.258;2023-09-07T06:17:51;98066.44;;;19.54;92.49
21574;BME280;10948;48.706;9.258;2023-09-07T06:20:16;98068.19;;;20.11;87.60
21574;BME280;10948;48.706;9.258;2023-09-07T06:22:42;98061.16;;;19.54;87.65
21574;BME280;10948;48.706;9.258;2023-09-07T06:25:10;98068.59;;;20.06;86.17
21574;BME280;10948;48.706;9.258;2023-09-07T06:27:35;98067.44;;;20.55;82.50
21574;BME280;10948;48.706;9.258;2023-09-07T06:30:00;98065.13;;;19.87;83.33
21574;BME280;10948;48.706;9.258;2023-09-07T06:32:26;98057.47;;;20.39;82.56
21574;BME280;10948;48.706;9.258;2023-09-07T06:34:52;98070.78;;;20.93;81.58
21574;BME280;10948;48.706;9.258;2023-09-07T06:37:18;98059.13;;;23.25;71.07
21574;BME280;10948;48.706;9.258;2023-09-07T06:39:44;98058.47;;;25.50;62.29
21574;BME280;10948;48.706;9.258;2023-09-07T06:42:09;98063.72;;;25.81;60.74
21574;BME280;10948;48.706;9.258;2023-09-07T06:44:35;98060.88;;;26.56;58.44
21574;BME280;10948;48.706;9.258;2023-09-07T06:47:00;98066.44;;;27.05;56.96
21574;BME280;10948;48.706;9.258;2023-09-07T06:49:26;98061.28;;;26.89;56.31
21574;BME280;10948;48.706;9.258;2023-09-07T06:51:53;98067.66;;;26.73;55.54
21574;BME280;10948;48.706;9.258;2023-09-07T06:54:18;98074.25;;;27.06;54.77
21574;BME280;10948;48.706;9.258;2023-09-07T06:56:43;98067.91;;;28.88;52.91
21574;BME280;10948;48.706;9.258;2023-09-07T06:59:08;98071.13;;;27.95;52.22
21574;BME280;10948;48.706;9.258;2023-09-07T07:01:34;98081.63;;;25.50;59.17
21574;BME280;10948;48.706;9.258;2023-09-07T07:04:00;98076.34;;;27.40;56.91
21574;BME280;10948;48.706;9.258;2023-09-07T07:06:25;98076.97;;;28.53;53.08
21574;BME280;10948;48.706;9.258;2023-09-07T07:08:51;98083.50;;;28.44;52.19
21574;BME280;10948;48.706;9.258;2023-09-07T07:11:17;98085.41;;;29.98;50.12
21574;BME280;10948;48.706;9.258;2023-09-07T07:13:42;98086.94;;;28.66;52.04
21574;BME280;10948;48.706;9.258;2023-09-07T07:16:07;98090.00;;;28.63;52.56
21574;BME280;10948;48.706;9.258;2023-09-07T07:18:33;98084.88;;;28.61;52.80
21574;BME280;10948;48.706;9.258;2023-09-07T07:20:58;98083.00;;;28.96;51.65
21574;BME280;10948;48.706;9.258;2023-09-07T07:23:23;98084.66;;;28.97;51.11
21574;BME280;10948;48.706;9.258;2023-09-07T07:25:48;98084.88;;;26.71;55.44
21574;BME280;10948;48.706;9.258;2023-09-07T07:28:13;98095.50;;;25.68;60.12
21574;BME280;10948;48.706;9.258;2023-09-07T07:30:39;98090.63;;;24.80;62.95
21574;BME280;10948;48.706;9.258;2023-09-07T07:33:07;98090.03;;;25.39;60.98
21574;BME280;10948;48.706;9.258;2023-09-07T07:35:33;98092.41;;;25.79;61.27
21574;BME280;10948;48.706;9.258;2023-09-07T07:37:59;98084.06;;;26.56;59.07
21574;BME280;10948;48.706;9.258;2023-09-07T07:40:25;98083.16;;;25.44;61.77
21574;BME280;10948;48.706;9.258;2023-09-07T07:42:51;98077.53;;;27.37;58.42
21574;BME280;10948;48.706;9.258;2023-09-07T07:45:16;98080.13;;;28.97;53.80
21574;BME280;10948;48.706;9.258;2023-09-07T07:47:45;98082.69;;;32.56;45.67
21574;BME280;10948;48.706;9.258;2023-09-07T07:50:10;98084.63;;;33.75;42.57
21574;BME280;10948;48.706;9.258;2023-09-07T07:52:36;98090.28;;;32.41;45.63
21574;BME280;10948;48.706;9.258;2023-09-07T07:55:01;98091.78;;;33.16;43.49
21574;BME280;10948;48.706;9.258;2023-09-07T07:57:27;98092.03;;;35.01;41.21
21574;BME280;10948;48.706;9.258;2023-09-07T07:59:52;98089.00;;;35.09;40.21
21574;BME280;10948;48.706;9.258;2023-09-07T08:02:17;98097.59;;;33.37;42.78
21574;BME280;10948;48.706;9.258;2023-09-07T08:04:45;98092.66;;;36.76;39.52
21574;BME280;10948;48.706;9.258;2023-09-07T08:07:11;98094.88;;;37.01;38.49
21574;BME280;10948;48.706;9.258;2023-09-07T08:09:36;98088.31;;;37.56;37.84
21574;BME280;10948;48.706;9.258;2023-09-07T08:12:03;98093.47;;;34.46;40.68
21574;BME280;10948;48.706;9.258;2023-09-07T08:14:28;98090.34;;;35.35;39.89
21574;BME280;10948;48.706;9.258;2023-09-07T08:16:54;98080.50;;;36.62;38.33
21574;BME280;10948;48.706;9.258;2023-09-07T08:19:19;98080.75;;;36.99;38.21
21574;BME280;10948;48.706;9.258;2023-09-07T08:21:45;98080.91;;;36.92;37.94
21574;BME280;10948;48.706;9.258;2023-09-07T08:24:11;98071.84;;;39.65;35.00
21574;BME280;10948;48.706;9.258;2023-09-07T08:26:36;98072.66;;;37.47;37.05
21574;BME280;10948;48.706;9.258;2023-09-07T08:29:02;98073.25;;;38.33;35.96
21574;BME280;10948;48.706;9.258;2023-09-07T08:31:34;98075.09;;;39.47;34.43
21574;BME280;10948;48.706;9.258;2023-09-07T08:34:00;98075.31;;;38.84;34.79
21574;BME280;10948;48.706;9.258;2023-09-07T08:36:25;98072.00;;;38.09;36.06
21574;BME280;10948;48.706;9.258;2023-09-07T08:38:53;98073.00;;;37.77;37.20
21574;BME280;10948;48.706;9.258;2023-09-07T08:41:18;98077.78;;;37.91;36.77
21574;BME280;10948;48.706;9.258;2023-09-07T08:43:44;98079.59;;;38.39;36.52
21574;BME280;10948;48.706;9.258;2023-09-07T08:46:14;98080.16;;;39.24;35.41
21574;BME280;10948;48.706;9.258;2023-09-07T08:48:40;98087.75;;;39.88;34.41
21574;BME280;10948;48.706;9.258;2023-09-07T08:51:07;98082.09;;;40.65;33.95
21574;BME280;10948;48.706;9.258;2023-09-07T08:53:32;98087.25;;;40.11;33.72
21574;BME280;10948;48.706;9.258;2023-09-07T08:55:59;98081.97;;;37.29;36.49
21574;BME280;10948;48.706;9.258;2023-09-07T08:58:24;98073.28;;;33.19;42.95
21574;BME280;10948;48.706;9.258;2023-09-07T09:00:50;98074.00;;;31.37;46.13
21574;BME280;10948;48.706;9.258;2023-09-07T09:03:16;98078.38;;;30.68;47.86
21574;BME280;10948;48.706;9.258;2023-09-07T09:05:42;98083.31;;;30.78;47.57
21574;BME280;10948;48.706;9.258;2023-09-07T09:08:08;98083.81;;;32.24;45.88
21574;BME280;10948;48.706;9.258;2023-09-07T09:10:33;98073.72;;;31.82;46.80
21574;BME280;10948;48.706;9.258;2023-09-07T09:12:58;98074.31;;;32.15;46.28
21574;BME280;10948;48.706;9.258;2023-09-07T09:15:27;98069.75;;;31.54;47.14
21574;BME280;10948;48.706;9.258;2023-09-07T09:17:52;98068.78;;;32.10;47.36
21574;BME280;10948;48.706;9.258;2023-09-07T09:20:22;98075.50;;;32.68;45.98
21574;BME280;10948;48.706;9.258;2023-09-07T09:22:48;98077.91;;;31.78;47.48
21574;BME280;10948;48.706;9.258;2023-09-07T09:25:13;98071.47;;;33.13;45.73
21574;BME280;10948;48.706;9.258;2023-09-07T09:27:38;98066.50;;;32.07;45.69
21574;BME280;10948;48.706;9.258;2023-09-07T09:30:04;98069.56;;;32.42;46.38
21574;BME280;10948;48.706;9.258;2023-09-07T09:32:29;98066.53;;;31.77;46.53
21574;BME280;10948;48.706;9.258;2023-09-07T09:34:54;98061.00;;;33.05;45.47
21574;BME280;10948;48.706;9.258;2023-09-07T09:37:20;98057.59;;;32.07;46.47
21574;BME280;10948;48.706;9.258;2023-09-07T09:39:48;98054.19;;;31.93;46.76
21574;BME280;10948;48.706;9.258;2023-09-07T09:42:14;98047.97;;;32.84;45.62
21574;BME280;10948;48.706;9.258;2023-09-07T09:44:40;98049.72;;;32.54;45.97
21574;BME280;10948;48.706;9.258;2023-09-07T09:47:05;98056.56;;;32.32;46.86
21574;BME280;10948;48.706;9.258;2023-09-07T09:49:33;98051.41;;;32.31;46.11
21574;BME280;10948;48.706;9.258;2023-09-07T09:51:58;98062.31;;;32.42;47.53
21574;BME280;10948;48.706;9.258;2023-09-07T09:54:23;98049.88;;;32.59;45.83
21574;BME280;10948;48.706;9.258;2023-09-07T09:56:51;98053.84;;;33.11;45.91
21574;BME280;10948;48.706;9.258;2023-09-07T09:59:16;98050.25;;;33.64;45.58
21574;BME280;10948;48.706;9.258;2023-09-07T10:01:43;98043.53;;;32.90;46.04
21574;BME280;10948;48.706;9.258;2023-09-07T10:04:09;98049.72;;;32.79;46.16
21574;BME280;10948;48.706;9.258;2023-09-07T10:06:35;98046.63;;;33.29;46.27
21574;BME280;10948;48.706;9.258;2023-09-07T10:09:07;98055.59;;;34.46;45.13
21574;BME280;10948;48.706;9.258;2023-09-07T10:11:33;98054.22;;;33.50;46.08
21574;BME280;10948;48.706;9.258;2023-09-07T10:14:00;98042.44;;;34.38;44.21
21574;BME280;10948;48.706;9.258;2023-09-07T10:16:25;98032.03;;;35.60;44.29
21574;BME280;10948;48.706;9.258;2023-09-07T10:18:52;98035.16;;;32.80;45.80
21574;BME280;10948;48.706;9.258;2023-09-07T10:21:17;98034.91;;;33.35;45.39
21574;BME280;10948;48.706;9.258;2023-09-07T10:23:43;98039.38;;;34.46;45.27
21574;BME280;10948;48.706;9.258;2023-09-07T10:26:12;98033.81;;;34.07;45.19
21574;BME280;10948;48.706;9.258;2023-09-07T10:28:38;98032.53;;;34.09;44.61
21574;BME280;10948;48.706;9.258;2023-09-07T10:31:05;98023.28;;;35.14;44.80
21574;BME280;10948;48.706;9.258;2023-09-07T10:33:34;98015.84;;;35.21;43.68
21574;BME280;10948;48.706;9.258;2023-09-07T10:35:59;98024.19;;;36.36;42.34
21574;BME280;10948;48.706;9.258;2023-09-07T10:38:25;98017.97;;;34.56;42.95
21574;BME280;10948;48.706;9.258;2023-09-07T10:40:57;98013.63;;;35.06;43.59
21574;BME280;10948;48.706;9.258;2023-09-07T10:43:23;98011.25;;;35.21;42.94
21574;BME280;10948;48.706;9.258;2023-09-07T10:45:48;98014.44;;;35.46;44.29
21574;BME280;10948;48.706;9.258;2023-09-07T10:48:14;98007.00;;;35.25;42.77
21574;BME280;10948;48.706;9.258;2023-09-07T10:50:42;98009.75;;;34.28;43.99
21574;BME280;10948;48.706;9.258;2023-09-07T10:53:08;98008.03;;;34.96;43.11
21574;BME280;10948;48.706;9.258;2023-09-07T10:55:36;98016.53;;;34.19;44.15
21574;BME280;10948;48.706;9.258;2023-09-07T10:58:03;98015.97;;;34.40;44.67
21574;BME280;10948;48.706;9.258;2023-09-07T11:00:29;98005.28;;;34.45;43.62
21574;BME280;10948;48.706;9.258;2023-09-07T11:02:54;97997.94;;;34.80;43.20
21574;BME280;10948;48.706;9.258;2023-09-07T11:05:19;97991.53;;;35.09;43.37
21574;BME280;10948;48.706;9.258;2023-09-07T11:07:44;97997.25;;;34.73;43.11
21574;BME280;10948;48.706;9.258;2023-09-07T11:10:10;97998.94;;;35.86;42.92
21574;BME280;10948;48.706;9.258;2023-09-07T11:12:39;97998.94;;;35.86;42.92
21574;BME280;10948;48.706;9.258;2023-09-07T11:15:08;97995.66;;;35.40;43.17
21574;BME280;10948;48.706;9.258;2023-09-07T11:17:33;97995.00;;;36.10;41.65
21574;BME280;10948;48.706;9.258;2023-09-07T11:19:58;97990.44;;;36.87;41.12
21574;BME280;10948;48.706;9.258;2023-09-07T11:22:30;97988.84;;;35.37;41.94
21574;BME280;10948;48.706;9.258;2023-09-07T11:24:55;97992.00;;;34.32;43.61
21574;BME280;10948;48.706;9.258;2023-09-07T11:27:21;97979.72;;;35.15;42.34
21574;BME280;10948;48.706;9.258;2023-09-07T11:29:50;97981.03;;;36.18;42.27
21574;BME280;10948;48.706;9.258;2023-09-07T11:32:16;97977.47;;;34.61;43.60
21574;BME280;10948;48.706;9.258;2023-09-07T11:34:47;97982.91;;;33.92;43.67
21574;BME280;10948;48.706;9.258;2023-09-07T11:37:15;97979.28;;;33.98;43.80
21574;BME280;10948;48.706;9.258;2023-09-07T11:39:40;97967.66;;;34.32;43.70
21574;BME280;10948;48.706;9.258;2023-09-07T11:42:06;97971.97;;;35.07;43.13
21574;BME280;10948;48.706;9.258;2023-09-07T11:44:31;97965.13;;;35.44;41.56
21574;BME280;10948;48.706;9.258;2023-09-07T11:46:56;97960.19;;;36.78;41.71
21574;BME280;10948;48.706;9.258;2023-09-07T11:49:21;97968.28;;;36.02;42.55
21574;BME280;10948;48.706;9.258;2023-09-07T11:51:46;97971.66;;;35.76;41.62
21574;BME280;10948;48.706;9.258;2023-09-07T11:54:12;97967.78;;;36.22;41.60
21574;BME280;10948;48.706;9.258;2023-09-07T11:56:37;97966.88;;;36.33;41.41
21574;BME280;10948;48.706;9.258;2023-09-07T11:59:07;97968.88;;;36.04;41.92
21574;BME280;10948;48.706;9.258;2023-09-07T12:01:33;97959.47;;;35.62;42.42
21574;BME280;10948;48.706;9.258;2023-09-07T12:03:58;97957.22;;;34.24;42.84
21574;BME280;10948;48.706;9.258;2023-09-07T12:06:23;97955.41;;;34.41;42.24
21574;BME280;10948;48.706;9.258;2023-09-07T12:09:01;97957.84;;;34.54;42.44
21574;BME280;10948;48.706;9.258;2023-09-07T12:11:27;97952.97;;;34.91;42.11
21574;BME280;10948;48.706;9.258;2023-09-07T12:13:53;97953.56;;;35.65;41.01
21574;BME280;10948;48.706;9.258;2023-09-07T12:16:18;97953.38;;;35.39;42.01
21574;BME280;10948;48.706;9.258;2023-09-07T12:18:43;97955.13;;;34.77;42.83
21574;BME280;10948;48.706;9.258;2023-09-07T12:21:09;97953.13;;;35.68;40.87
21574;BME280;10948;48.706;9.258;2023-09-07T12:23:34;97947.84;;;36.49;40.16
21574;BME280;10948;48.706;9.258;2023-09-07T12:26:00;97952.41;;;36.27;40.64
21574;BME280;10948;48.706;9.258;2023-09-07T12:28:26;97945.84;;;35.57;41.30
21574;BME280;10948;48.706;9.258;2023-09-07T12:30:51;97937.94;;;36.38;42.13
21574;BME280;10948;48.706;9.258;2023-09-07T12:33:16;97945.66;;;36.89;40.27
21574;BME280;10948;48.706;9.258;2023-09-07T12:35:41;97934.84;;;36.94;39.70
21574;BME280;10948;48.706;9.258;2023-09-07T12:38:06;97935.50;;;37.01;39.86
21574;BME280;10948;48.706;9.258;2023-09-07T12:40:34;97935.56;;;37.33;40.54
21574;BME280;10948;48.706;9.258;2023-09-07T12:42:59;97923.28;;;36.39;42.39
21574;BME280;10948;48.706;9.258;2023-09-07T12:45:24;97934.91;;;37.21;41.94
21574;BME280;10948;48.706;9.258;2023-09-07T12:47:50;97925.34;;;36.70;43.11
21574;BME280;10948;48.706;9.258;2023-09-07T12:50:15;97926.69;;;36.51;42.98